sensor_id;sensor_type;location;lat;lon;timestamp;pressure;altitude;pressure_sealevel;temperature;humidity
37610;BME280;23457;51.966;8.230;2024-03-25T00:00:10;99811.13;;;6.30;100.00
37610;BME280;23457;51.966;8.230;2024-03-25T00:02:40;99806.16;;;6.40;100.00
37610;BME280;23457;51.966;8.230;2024-03-25T00:05:07;99813.97;;;6.43;100.00
37610;BME280;23457;51.966;8.230;2024-03-25T00:07:37;99812.03;;;6.32;100.00
37610;BME280;23457;51.966;8.230;2024-03-25T00:10:03;99823.72;;;6.15;100.00
37610;BME280;23457;51.966;8.230;2024-03-25T00:12:29;99828.00;;;6.13;100.00
37610;BME280;23457;51.966;8.230;2024-03-25T00:14:55;99834.13;;;6.18;100.00
37610;BME280;23457;51.966;8.230;2024-03-25T00:17:21;99837.50;;;6.15;100.00
37610;BME280;23457;51.966;8.230;2024-03-25T00:19:46;99840.19;;;6.20;100.00
37610;BME280;23457;51.966;8.230;2024-03-25T00:22:20;99835.72;;;6.13;100.00
37610;BME280;23457;51.966;8.230;2024-03-25T00:24:46;99835.25;;;6.32;100.00
37610;BME280;23457;51.966;8.230;2024-03-25T00:27:13;99833.50;;;6.31;100.00
37610;BME280;23457;51.966;8.230;2024-03-25T00:29:39;99830.56;;;6.59;100.00
37610;BME280;23457;51.966;8.230;2024-03-25T00:32:05;99820.75;;;6.38;100.00
37610;BME280;23457;51.966;8.230;2024-03-25T00:34:32;99830.56;;;6.59;100.00
37610;BME280;23457;51.966;8.230;2024-03-25T00:37:00;99829.13;;;6.27;100.00
37610;BME280;23457;51.966;8.230;2024-03-25T00:39:32;99841.09;;;6.23;100.00
37610;BME280;23457;51.966;8.230;2024-03-25T00:42:00;99836.88;;;6.27;100.00
37610;BME280;23457;51.966;8.230;2024-03-25T00:44:26;99851.16;;;6.11;100.00
37610;BME280;23457;51.966;8.230;2024-03-25T00:46:52;99843.53;;;6.16;100.00
37610;BME280;23457;51.966;8.230;2024-03-25T00:49:18;99831.84;;;6.33;100.00
37610;BME280;23457;51.966;8.230;2024-03-25T00:52:08;99845.34;;;6.20;100.00
37610;BME280;23457;51.966;8.230;2024-03-25T00:54:34;99846.03;;;6.13;100.00
37610;BME280;23457;51.966;8.230;2024-03-25T00:57:00;99856.50;;;6.19;100.00
37610;BME280;23457;51.966;8.230;2024-03-25T00:59:25;99841.84;;;6.63;100.00
37610;BME280;23457;51.966;8.230;2024-03-25T01:01:51;99848.34;;;6.42;100.00
37610;BME280;23457;51.966;8.230;2024-03-25T01:04:20;99843.59;;;6.19;100.00
37610;BME280;23457;51.966;8.230;2024-03-25T01:06:45;99854.91;;;6.25;100.00
37610;BME280;23457;51.966;8.230;2024-03-25T01:09:14;99843.00;;;6.32;100.00
37610;BME280;23457;51.966;8.230;2024-03-25T01:11:41;99846.69;;;6.46;100.00
37610;BME280;23457;51.966;8.230;2024-03-25T01:14:07;99844.34;;;6.58;100.00
37610;BME280;23457;51.966;8.230;2024-03-25T01:16:33;99855.00;;;6.30;100.00
37610;BME280;23457;51.966;8.230;2024-03-25T01:18:59;99851.47;;;6.26;100.00
37610;BME280;23457;51.966;8.230;2024-03-25T01:21:25;99853.19;;;6.26;100.00
37610;BME280;23457;51.966;8.230;2024-03-25T01:23:54;99861.63;;;6.17;100.00
37610;BME280;23457;51.966;8.230;2024-03-25T01:26:20;99858.03;;;6.10;100.00
37610;BME280;23457;51.966;8.230;2024-03-25T01:28:46;99850.34;;;6.12;100.00
37610;BME280;23457;51.966;8.230;2024-03-25T01:31:11;99851.44;;;6.25;100.00
37610;BME280;23457;51.966;8.230;2024-03-25T01:33:37;99860.81;;;6.20;100.00
37610;BME280;23457;51.966;8.230;2024-03-25T01:36:03;99864.25;;;6.19;100.00
37610;BME280;23457;51.966;8.230;2024-03-25T01:38:29;99862.47;;;6.16;100.00
37610;BME280;23457;51.966;8.230;2024-03-25T01:40:54;99860.44;;;6.01;100.00
37610;BME280;23457;51.966;8.230;2024-03-25T01:43:22;99871.84;;;6.13;100.00
37610;BME280;23457;51.966;8.230;2024-03-25T01:45:48;99867.28;;;5.99;100.00
37610;BME280;23457;51.966;8.230;2024-03-25T01:48:17;99867.75;;;6.24;100.00
37610;BME280;23457;51.966;8.230;2024-03-25T01:50:46;99863.03;;;6.01;100.00
37610;BME280;23457;51.966;8.230;2024-03-25T01:53:18;99872.59;;;6.08;100.00
37610;BME280;23457;51.966;8.230;2024-03-25T01:55:45;99869.44;;;6.22;100.00
37610;BME280;23457;51.966;8.230;2024-03-25T01:58:12;99865.84;;;6.14;100.00
37610;BME280;23457;51.966;8.230;2024-03-25T02:00:38;99876.25;;;6.17;100.00
37610;BME280;23457;51.966;8.230;2024-03-25T02:03:04;99870.94;;;6.10;100.00
37610;BME280;23457;51.966;8.230;2024-03-25T02:05:31;99868.53;;;6.18;100.00
37610;BME280;23457;51.966;8.230;2024-03-25T02:07:57;99871.63;;;6.02;100.00
37610;BME280;23457;51.966;8.230;2024-03-25T02:10:24;99865.66;;;6.04;100.00
37610;BME280;23457;51.966;8.230;2024-03-25T02:12:51;99878.88;;;6.21;100.00
37610;BME280;23457;51.966;8.230;2024-03-25T02:15:17;99876.91;;;6.08;100.00
37610;BME280;23457;51.966;8.230;2024-03-25T02:17:43;99872.66;;;6.10;100.00
37610;BME280;23457;51.966;8.230;2024-03-25T02:20:27;99871.16;;;6.21;100.00
37610;BME280;23457;51.966;8.230;2024-03-25T02:22:56;99879.41;;;6.03;100.00
37610;BME280;23457;51.966;8.230;2024-03-25T02:25:22;99879.66;;;6.16;100.00
37610;BME280;23457;51.966;8.230;2024-03-25T02:27:48;99876.06;;;6.07;100.00
37610;BME280;23457;51.966;8.230;2024-03-25T02:30:20;99880.94;;;5.95;100.00
37610;BME280;23457;51.966;8.230;2024-03-25T02:32:46;99884.16;;;5.87;100.00
37610;BME280;23457;51.966;8.230;2024-03-25T02:35:13;99881.47;;;6.20;100.00
37610;BME280;23457;51.966;8.230;2024-03-25T02:37:40;99881.81;;;5.96;100.00
37610;BME280;23457;51.966;8.230;2024-03-25T02:40:11;99890.19;;;5.87;100.00
37610;BME280;23457;51.966;8.230;2024-03-25T02:42:38;99892.19;;;5.99;100.00
37610;BME280;23457;51.966;8.230;2024-03-25T02:45:05;99891.47;;;6.04;100.00
37610;BME280;23457;51.966;8.230;2024-03-25T02:47:31;99895.72;;;6.02;100.00
37610;BME280;23457;51.966;8.230;2024-03-25T02:49:57;99892.44;;;6.11;100.00
37610;BME280;23457;51.966;8.230;2024-03-25T02:52:26;99890.44;;;5.98;100.00
37610;BME280;23457;51.966;8.230;2024-03-25T02:54:52;99890.53;;;6.01;100.00
37610;BME280;23457;51.966;8.230;2024-03-25T02:57:20;99889.16;;;6.18;100.00
37610;BME280;23457;51.966;8.230;2024-03-25T02:59:46;99899.13;;;6.01;100.00
37610;BME280;23457;51.966;8.230;2024-03-25T03:02:11;99893.44;;;6.16;100.00
37610;BME280;23457;51.966;8.230;2024-03-25T03:04:37;99897.81;;;5.81;100.00
37610;BME280;23457;51.966;8.230;2024-03-25T03:07:03;99900.72;;;5.96;100.00
37610;BME280;23457;51.966;8.230;2024-03-25T03:09:29;99903.16;;;5.89;100.00
37610;BME280;23457;51.966;8.230;2024-03-25T03:11:54;99905.97;;;5.99;100.00
37610;BME280;23457;51.966;8.230;2024-03-25T03:14:23;99910.50;;;6.11;100.00
37610;BME280;23457;51.966;8.230;2024-03-25T03:16:49;99913.59;;;5.93;100.00
37610;BME280;23457;51.966;8.230;2024-03-25T03:19:15;99910.25;;;5.99;100.00
37610;BME280;23457;51.966;8.230;2024-03-25T03:21:40;99909.88;;;6.23;100.00
37610;BME280;23457;51.966;8.230;2024-03-25T03:24:06;99908.25;;;5.87;100.00
37610;BME280;23457;51.966;8.230;2024-03-25T03:26:32;99913.69;;;5.99;100.00
37610;BME280;23457;51.966;8.230;2024-03-25T03:28:57;99921.78;;;5.77;100.00
37610;BME280;23457;51.966;8.230;2024-03-25T03:31:24;99917.03;;;5.95;100.00
37610;BME280;23457;51.966;8.230;2024-03-25T03:33:50;99913.78;;;6.02;100.00
37610;BME280;23457;51.966;8.230;2024-03-25T03:36:17;99919.91;;;6.07;100.00
37610;BME280;23457;51.966;8.230;2024-03-25T03:38:44;99926.09;;;5.78;100.00
37610;BME280;23457;51.966;8.230;2024-03-25T03:41:09;99920.03;;;5.76;100.00
37610;BME280;23457;51.966;8.230;2024-03-25T03:43:36;99922.38;;;5.65;100.00
37610;BME280;23457;51.966;8.230;2024-03-25T03:46:02;99922.25;;;5.61;100.00
37610;BME280;23457;51.966;8.230;2024-03-25T03:48:28;99925.66;;;5.60;100.00
37610;BME280;23457;51.966;8.230;2024-03-25T03:50:54;99931.94;;;5.71;100.00
37610;BME280;23457;51.966;8.230;2024-03-25T03:53:20;99928.63;;;5.76;100.00
37610;BME280;23457;51.966;8.230;2024-03-25T03:55:59;99924.47;;;5.83;100.00
37610;BME280;23457;51.966;8.230;2024-03-25T03:58:27;99932.28;;;5.86;100.00
37610;BME280;23457;51.966;8.230;2024-03-25T04:00:54;99929.44;;;5.74;100.00
37610;BME280;23457;51.966;8.230;2024-03-25T04:03:20;99923.69;;;5.86;100.00
37610;BME280;23457;51.966;8.230;2024-03-25T04:05:46;99920.75;;;5.70;100.00
37610;BME280;23457;51.966;8.230;2024-03-25T04:08:11;99919.56;;;5.55;100.00
37610;BME280;23457;51.966;8.230;2024-03-25T04:10:38;99923.38;;;5.72;100.00
37610;BME280;23457;51.966;8.230;2024-03-25T04:13:04;99914.94;;;5.79;100.00
37610;BME280;23457;51.966;8.230;2024-03-25T04:15:41;99918.47;;;5.84;100.00
37610;BME280;23457;51.966;8.230;2024-03-25T04:18:07;99925.34;;;5.82;100.00
37610;BME280;23457;51.966;8.230;2024-03-25T04:20:41;99921.38;;;5.96;100.00
37610;BME280;23457;51.966;8.230;2024-03-25T04:23:09;99931.88;;;6.04;100.00
37610;BME280;23457;51.966;8.230;2024-03-25T04:25:35;99932.47;;;5.92;100.00
37610;BME280;23457;51.966;8.230;2024-03-25T04:28:07;99920.75;;;5.69;100.00
37610;BME280;23457;51.966;8.230;2024-03-25T04:30:33;99928.41;;;5.66;100.00
37610;BME280;23457;51.966;8.230;2024-03-25T04:32:59;99929.66;;;5.85;100.00
37610;BME280;23457;51.966;8.230;2024-03-25T04:35:51;99944.16;;;5.78;100.00
37610;BME280;23457;51.966;8.230;2024-03-25T04:38:17;99940.72;;;5.79;100.00
37610;BME280;23457;51.966;8.230;2024-03-25T04:40:43;99946.91;;;5.50;100.00
37610;BME280;23457;51.966;8.230;2024-03-25T04:43:25;99944.78;;;5.68;100.00
37610;BME280;23457;51.966;8.230;2024-03-25T04:45:50;99954.31;;;5.72;100.00
37610;BME280;23457;51.966;8.230;2024-03-25T04:48:16;99956.47;;;5.54;100.00
37610;BME280;23457;51.966;8.230;2024-03-25T04:51:07;99951.69;;;5.69;100.00
37610;BME280;23457;51.966;8.230;2024-03-25T04:53:34;99954.66;;;5.87;100.00
37610;BME280;23457;51.966;8.230;2024-03-25T04:56:00;99956.09;;;5.74;100.00
37610;BME280;23457;51.966;8.230;2024-03-25T04:58:26;99953.25;;;6.00;100.00
37610;BME280;23457;51.966;8.230;2024-03-25T05:00:52;99953.28;;;6.01;100.00
37610;BME280;23457;51.966;8.230;2024-03-25T05:03:17;99960.31;;;6.08;100.00
37610;BME280;23457;51.966;8.230;2024-03-25T05:05:44;99965.72;;;5.82;100.00
37610;BME280;23457;51.966;8.230;2024-03-25T05:08:09;99959.78;;;5.86;100.00
37610;BME280;23457;51.966;8.230;2024-03-25T05:10:35;99961.38;;;5.79;100.00
37610;BME280;23457;51.966;8.230;2024-03-25T05:13:01;99964.84;;;5.81;100.00
37610;BME280;23457;51.966;8.230;2024-03-25T05:15:26;99970.13;;;5.87;100.00
37610;BME280;23457;51.966;8.230;2024-03-25T05:20:22;99960.34;;;5.72;100.00
37610;BME280;23457;51.966;8.230;2024-03-25T05:22:48;99965.84;;;5.88;100.00
37610;BME280;23457;51.966;8.230;2024-03-25T05:25:14;99970.88;;;5.82;100.00
37610;BME280;23457;51.966;8.230;2024-03-25T05:28:05;99977.88;;;5.87;100.00
37610;BME280;23457;51.966;8.230;2024-03-25T05:30:32;99978.34;;;5.71;100.00
37610;BME280;23457;51.966;8.230;2024-03-25T05:32:57;99983.84;;;5.86;100.00
37610;BME280;23457;51.966;8.230;2024-03-25T05:35:23;99991.19;;;5.68;100.00
37610;BME280;23457;51.966;8.230;2024-03-25T05:37:52;99989.22;;;5.92;100.00
37610;BME280;23457;51.966;8.230;2024-03-25T05:40:17;99985.53;;;5.84;100.00
37610;BME280;23457;51.966;8.230;2024-03-25T05:42:46;99997.00;;;5.94;100.00
37610;BME280;23457;51.966;8.230;2024-03-25T05:45:15;99995.25;;;5.93;100.00
37610;BME280;23457;51.966;8.230;2024-03-25T05:47:41;99986.91;;;5.70;100.00
37610;BME280;23457;51.966;8.230;2024-03-25T05:50:08;99994.28;;;5.89;100.00
37610;BME280;23457;51.966;8.230;2024-03-25T05:52:35;99993.81;;;6.05;100.00
37610;BME280;23457;51.966;8.230;2024-03-25T05:55:01;100001.00;;;6.19;100.00
37610;BME280;23457;51.966;8.230;2024-03-25T05:57:27;99990.41;;;6.06;100.00
37610;BME280;23457;51.966;8.230;2024-03-25T05:59:52;100002.28;;;6.00;100.00
37610;BME280;23457;51.966;8.230;2024-03-25T06:02:18;100000.53;;;5.99;100.00
37610;BME280;23457;51.966;8.230;2024-03-25T06:04:44;99997.22;;;6.04;100.00
37610;BME280;23457;51.966;8.230;2024-03-25T06:07:09;99992.97;;;6.08;100.00
37610;BME280;23457;51.966;8.230;2024-03-25T06:09:35;99992.03;;;6.03;100.00
37610;BME280;23457;51.966;8.230;2024-03-25T06:12:01;99997.84;;;5.94;100.00
37610;BME280;23457;51.966;8.230;2024-03-25T06:14:27;99994.72;;;6.07;100.00
37610;BME280;23457;51.966;8.230;2024-03-25T06:16:53;99998.41;;;6.19;100.00
37610;BME280;23457;51.966;8.230;2024-03-25T06:19:18;99997.53;;;6.18;100.00
37610;BME280;23457;51.966;8.230;2024-03-25T06:21:44;100010.03;;;6.01;100.00
37610;BME280;23457;51.966;8.230;2024-03-25T06:24:10;100006.03;;;5.78;100.00
37610;BME280;23457;51.966;8.230;2024-03-25T06:26:36;100012.34;;;6.27;100.00
37610;BME280;23457;51.966;8.230;2024-03-25T06:29:02;100005.34;;;6.23;100.00
37610;BME280;23457;51.966;8.230;2024-03-25T06:31:28;100009.50;;;6.15;100.00
37610;BME280;23457;51.966;8.230;2024-03-25T06:34:15;100011.47;;;5.89;100.00
37610;BME280;23457;51.966;8.230;2024-03-25T06:36:45;100011.34;;;6.22;100.00
37610;BME280;23457;51.966;8.230;2024-03-25T06:39:11;100025.13;;;5.86;100.00
37610;BME280;23457;51.966;8.230;2024-03-25T06:41:39;100027.94;;;5.95;100.00
37610;BME280;23457;51.966;8.230;2024-03-25T06:44:05;100028.63;;;6.24;100.00
37610;BME280;23457;51.966;8.230;2024-03-25T06:46:32;100032.84;;;6.21;100.00
37610;BME280;23457;51.966;8.230;2024-03-25T06:48:58;100038.50;;;6.42;100.00
37610;BME280;23457;51.966;8.230;2024-03-25T06:51:23;100035.41;;;6.19;100.00
37610;BME280;23457;51.966;8.230;2024-03-25T06:53:49;100031.50;;;6.38;100.00
37610;BME280;23457;51.966;8.230;2024-03-25T06:56:15;100041.34;;;6.54;100.00
37610;BME280;23457;51.966;8.230;2024-03-25T06:58:40;100034.34;;;6.50;100.00
37610;BME280;23457;51.966;8.230;2024-03-25T07:01:08;100040.00;;;6.34;100.00
37610;BME280;23457;51.966;8.230;2024-03-25T07:03:34;100048.97;;;6.50;100.00
37610;BME280;23457;51.966;8.230;2024-03-25T07:06:01;100044.56;;;6.44;100.00
37610;BME280;23457;51.966;8.230;2024-03-25T07:08:27;100053.06;;;6.40;100.00
37610;BME280;23457;51.966;8.230;2024-03-25T07:10:54;100051.28;;;6.37;100.00
37610;BME280;23457;51.966;8.230;2024-03-25T07:13:20;100045.13;;;6.70;100.00
37610;BME280;23457;51.966;8.230;2024-03-25T07:15:46;100044.16;;;6.66;100.00
37610;BME280;23457;51.966;8.230;2024-03-25T07:18:12;100045.81;;;6.63;100.00
37610;BME280;23457;51.966;8.230;2024-03-25T07:20:44;100047.91;;;6.80;100.00
37610;BME280;23457;51.966;8.230;2024-03-25T07:23:10;100043.75;;;6.48;100.00
37610;BME280;23457;51.966;8.230;2024-03-25T07:25:36;100051.91;;;6.66;100.00
37610;BME280;23457;51.966;8.230;2024-03-25T07:28:03;100049.75;;;6.45;100.00
37610;BME280;23457;51.966;8.230;2024-03-25T07:30:29;100054.28;;;6.56;100.00
37610;BME280;23457;51.966;8.230;2024-03-25T07:32:58;100053.78;;;6.73;100.00
37610;BME280;23457;51.966;8.230;2024-03-25T07:35:25;100056.94;;;6.60;100.00
37610;BME280;23457;51.966;8.230;2024-03-25T07:37:51;100053.09;;;6.80;100.00
37610;BME280;23457;51.966;8.230;2024-03-25T07:40:18;100057.06;;;7.07;100.00
37610;BME280;23457;51.966;8.230;2024-03-25T07:43:10;100055.78;;;6.87;100.00
37610;BME280;23457;51.966;8.230;2024-03-25T07:45:35;100061.34;;;7.06;100.00
37610;BME280;23457;51.966;8.230;2024-03-25T07:48:01;100063.09;;;6.65;100.00
37610;BME280;23457;51.966;8.230;2024-03-25T07:50:26;100069.53;;;6.86;100.00
37610;BME280;23457;51.966;8.230;2024-03-25T07:52:52;100063.66;;;6.93;100.00
37610;BME280;23457;51.966;8.230;2024-03-25T07:55:18;100061.25;;;7.02;100.00
37610;BME280;23457;51.966;8.230;2024-03-25T07:57:44;100061.47;;;7.12;100.00
37610;BME280;23457;51.966;8.230;2024-03-25T08:00:10;100058.47;;;7.36;100.00
37610;BME280;23457;51.966;8.230;2024-03-25T08:02:38;100063.53;;;7.30;100.00
37610;BME280;23457;51.966;8.230;2024-03-25T08:05:04;100058.56;;;7.41;100.00
37610;BME280;23457;51.966;8.230;2024-03-25T08:07:31;100055.72;;;7.27;100.00
37610;BME280;23457;51.966;8.230;2024-03-25T08:09:57;100062.63;;;7.28;100.00
37610;BME280;23457;51.966;8.230;2024-03-25T08:12:23;100075.81;;;7.42;100.00
37610;BME280;23457;51.966;8.230;2024-03-25T08:14:48;100067.84;;;7.31;100.00
37610;BME280;23457;51.966;8.230;2024-03-25T08:17:14;100067.72;;;7.25;100.00
37610;BME280;23457;51.966;8.230;2024-03-25T08:19:52;100072.22;;;7.34;100.00
37610;BME280;23457;51.966;8.230;2024-03-25T08:22:18;100067.41;;;7.53;100.00
37610;BME280;23457;51.966;8.230;2024-03-25T08:24:45;100066.84;;;7.70;100.00
37610;BME280;23457;51.966;8.230;2024-03-25T08:27:10;100071.25;;;7.77;100.00
37610;BME280;23457;51.966;8.230;2024-03-25T08:29:36;100076.88;;;7.53;100.00
37610;BME280;23457;51.966;8.230;2024-03-25T08:32:02;100069.03;;;8.00;100.00
37610;BME280;23457;51.966;8.230;2024-03-25T08:34:27;100067.50;;;8.09;100.00
37610;BME280;23457;51.966;8.230;2024-03-25T08:36:53;100070.13;;;7.60;100.00
37610;BME280;23457;51.966;8.230;2024-03-25T08:39:19;100068.59;;;7.72;100.00
37610;BME280;23457;51.966;8.230;2024-03-25T08:41:46;100065.19;;;7.75;100.00
37610;BME280;23457;51.966;8.230;2024-03-25T08:44:12;100068.88;;;7.89;100.00
37610;BME280;23457;51.966;8.230;2024-03-25T08:46:38;100068.03;;;7.90;100.00
37610;BME280;23457;51.966;8.230;2024-03-25T08:49:04;100072.09;;;7.76;100.00
37610;BME280;23457;51.966;8.230;2024-03-25T08:51:34;100065.44;;;7.90;100.00
37610;BME280;23457;51.966;8.230;2024-03-25T08:53:59;100062.53;;;8.24;100.00
37610;BME280;23457;51.966;8.230;2024-03-25T08:56:25;100057.41;;;8.27;100.00
37610;BME280;23457;51.966;8.230;2024-03-25T08:58:51;100064.63;;;8.47;100.00
37610;BME280;23457;51.966;8.230;2024-03-25T09:01:20;100062.25;;;8.06;100.00
37610;BME280;23457;51.966;8.230;2024-03-25T09:03:46;100065.69;;;8.05;100.00
37610;BME280;23457;51.966;8.230;2024-03-25T09:06:12;100071.47;;;8.43;100.00
37610;BME280;23457;51.966;8.230;2024-03-25T09:08:37;100063.22;;;8.70;100.00
37610;BME280;23457;51.966;8.230;2024-03-25T09:11:23;100058.19;;;8.82;100.00
37610;BME280;23457;51.966;8.230;2024-03-25T09:13:50;100063.81;;;8.51;100.00
37610;BME280;23457;51.966;8.230;2024-03-25T09:16:16;100062.47;;;8.80;100.00
37610;BME280;23457;51.966;8.230;2024-03-25T09:18:42;100068.13;;;8.52;100.00
37610;BME280;23457;51.966;8.230;2024-03-25T09:21:08;100063.38;;;8.82;100.00
37610;BME280;23457;51.966;8.230;2024-03-25T09:23:34;100062.59;;;8.91;100.00
37610;BME280;23457;51.966;8.230;2024-03-25T09:26:00;100060.00;;;8.89;100.00
37610;BME280;23457;51.966;8.230;2024-03-25T09:28:25;100066.03;;;8.90;100.00
37610;BME280;23457;51.966;8.230;2024-03-25T09:30:51;100060.19;;;9.05;100.00
37610;BME280;23457;51.966;8.230;2024-03-25T09:33:17;100060.22;;;9.08;100.00
37610;BME280;23457;51.966;8.230;2024-03-25T09:35:42;100061.13;;;9.10;100.00
37610;BME280;23457;51.966;8.230;2024-03-25T09:38:08;100063.31;;;8.79;100.00
37610;BME280;23457;51.966;8.230;2024-03-25T09:40:40;100063.13;;;8.66;100.00
37610;BME280;23457;51.966;8.230;2024-03-25T09:43:12;100057.28;;;8.80;100.00
37610;BME280;23457;51.966;8.230;2024-03-25T09:45:39;100065.97;;;8.82;100.00
37610;BME280;23457;51.966;8.230;2024-03-25T09:48:05;100060.81;;;8.87;100.00
37610;BME280;23457;51.966;8.230;2024-03-25T09:50:33;100064.31;;;8.90;100.00
37610;BME280;23457;51.966;8.230;2024-03-25T09:52:59;100058.50;;;9.08;100.00
37610;BME280;23457;51.966;8.230;2024-03-25T09:55:26;100058.66;;;9.22;100.00
37610;BME280;23457;51.966;8.230;2024-03-25T09:57:52;100062.28;;;9.36;100.00
37610;BME280;23457;51.966;8.230;2024-03-25T10:00:18;100069.84;;;9.19;100.00
37610;BME280;23457;51.966;8.230;2024-03-25T10:02:44;100067.91;;;8.98;100.00
37610;BME280;23457;51.966;8.230;2024-03-25T10:05:11;100063.72;;;9.10;100.00
37610;BME280;23457;51.966;8.230;2024-03-25T10:07:36;100069.72;;;9.07;100.00
37610;BME280;23457;51.966;8.230;2024-03-25T10:10:06;100066.63;;;9.40;100.00
37610;BME280;23457;51.966;8.230;2024-03-25T10:12:32;100058.88;;;9.43;100.00
37610;BME280;23457;51.966;8.230;2024-03-25T10:14:58;100062.50;;;9.60;100.00
37610;BME280;23457;51.966;8.230;2024-03-25T10:20:27;100064.50;;;9.06;100.00
37610;BME280;23457;51.966;8.230;2024-03-25T10:22:52;100060.13;;;9.00;100.00
37610;BME280;23457;51.966;8.230;2024-03-25T10:25:28;100060.88;;;8.91;100.00
37610;BME280;23457;51.966;8.230;2024-03-25T10:27:59;100060.34;;;9.18;100.00
37610;BME280;23457;51.966;8.230;2024-03-25T10:30:29;100060.25;;;9.11;100.00
37610;BME280;23457;51.966;8.230;2024-03-25T10:33:20;100055.09;;;9.14;100.00
37610;BME280;23457;51.966;8.230;2024-03-25T10:35:48;100064.72;;;9.22;100.00
37610;BME280;23457;51.966;8.230;2024-03-25T10:38:18;100059.72;;;9.41;100.00
37610;BME280;23457;51.966;8.230;2024-03-25T10:40:45;100055.63;;;9.65;100.00
37610;BME280;23457;51.966;8.230;2024-03-25T10:43:11;100057.91;;;10.30;97.57
37610;BME280;23457;51.966;8.230;2024-03-25T10:45:49;100061.22;;;10.14;97.75
37610;BME280;23457;51.966;8.230;2024-03-25T10:48:27;100058.69;;;10.19;92.23
37610;BME280;23457;51.966;8.230;2024-03-25T10:50:55;100054.28;;;10.10;88.48
37610;BME280;23457;51.966;8.230;2024-03-25T10:53:22;100053.50;;;10.19;82.70
37610;BME280;23457;51.966;8.230;2024-03-25T10:55:53;100049.34;;;10.47;82.20
37610;BME280;23457;51.966;8.230;2024-03-25T10:58:21;100053.16;;;9.81;80.34
37610;BME280;23457;51.966;8.230;2024-03-25T11:00:48;100043.84;;;10.04;83.58
37610;BME280;23457;51.966;8.230;2024-03-25T11:03:14;100048.19;;;10.08;75.40
37610;BME280;23457;51.966;8.230;2024-03-25T11:05:40;100042.31;;;10.30;71.47
37610;BME280;23457;51.966;8.230;2024-03-25T11:08:14;100041.41;;;10.21;70.03
37610;BME280;23457;51.966;8.230;2024-03-25T11:10:43;100037.19;;;10.41;77.51
37610;BME280;23457;51.966;8.230;2024-03-25T11:13:19;100021.75;;;10.70;73.10
37610;BME280;23457;51.966;8.230;2024-03-25T11:16:11;100025.25;;;10.72;71.24
37610;BME280;23457;51.966;8.230;2024-03-25T11:18:39;100024.38;;;10.73;72.44
37610;BME280;23457;51.966;8.230;2024-03-25T11:21:07;100023.47;;;10.68;74.86
37610;BME280;23457;51.966;8.230;2024-03-25T11:23:44;100016.72;;;11.22;76.04
37610;BME280;23457;51.966;8.230;2024-03-25T11:26:18;100014.19;;;11.47;73.77
37610;BME280;23457;51.966;8.230;2024-03-25T11:28:44;100018.44;;;11.18;74.23
37610;BME280;23457;51.966;8.230;2024-03-25T11:31:11;100009.84;;;11.49;77.50
37610;BME280;23457;51.966;8.230;2024-03-25T11:33:40;100003.75;;;11.37;74.66
37610;BME280;23457;51.966;8.230;2024-03-25T11:36:07;100005.44;;;11.17;69.49
37610;BME280;23457;51.966;8.230;2024-03-25T11:38:33;100003.69;;;11.08;73.34
37610;BME280;23457;51.966;8.230;2024-03-25T11:41:00;99989.84;;;11.20;74.08
37610;BME280;23457;51.966;8.230;2024-03-25T11:43:26;99998.50;;;11.11;76.91
37610;BME280;23457;51.966;8.230;2024-03-25T11:45:51;99988.13;;;11.29;69.82
37610;BME280;23457;51.966;8.230;2024-03-25T11:48:19;99987.25;;;11.21;78.25
37610;BME280;23457;51.966;8.230;2024-03-25T11:50:46;99982.91;;;11.20;76.22
37610;BME280;23457;51.966;8.230;2024-03-25T11:53:16;99990.66;;;10.88;76.30
37610;BME280;23457;51.966;8.230;2024-03-25T11:55:48;99987.03;;;10.56;70.91
37610;BME280;23457;51.966;8.230;2024-03-25T11:58:15;99981.16;;;10.99;76.66
37610;BME280;23457;51.966;8.230;2024-03-25T12:00:47;99977.75;;;11.35;75.13
37610;BME280;23457;51.966;8.230;2024-03-25T12:03:20;99976.88;;;11.32;75.37
37610;BME280;23457;51.966;8.230;2024-03-25T12:05:46;99974.25;;;11.13;73.76
37610;BME280;23457;51.966;8.230;2024-03-25T12:08:12;99972.53;;;11.38;74.30
37610;BME280;23457;51.966;8.230;2024-03-25T12:10:39;99970.78;;;11.42;73.75
37610;BME280;23457;51.966;8.230;2024-03-25T12:13:25;99962.13;;;11.57;70.00
37610;BME280;23457;51.966;8.230;2024-03-25T12:15:51;99963.00;;;11.49;67.31
37610;BME280;23457;51.966;8.230;2024-03-25T12:18:20;99963.03;;;11.89;77.64
37610;BME280;23457;51.966;8.230;2024-03-25T12:21:08;99961.19;;;12.38;69.69
37610;BME280;23457;51.966;8.230;2024-03-25T12:23:44;99951.69;;;12.05;65.76
37610;BME280;23457;51.966;8.230;2024-03-25T12:26:12;99952.59;;;11.72;64.20
37610;BME280;23457;51.966;8.230;2024-03-25T12:28:39;99950.84;;;11.21;70.74
37610;BME280;23457;51.966;8.230;2024-03-25T12:31:09;99953.47;;;11.59;68.96
37610;BME280;23457;51.966;8.230;2024-03-25T12:33:49;99943.91;;;11.67;66.95
37610;BME280;23457;51.966;8.230;2024-03-25T12:36:42;99930.03;;;11.80;69.66
37610;BME280;23457;51.966;8.230;2024-03-25T12:39:15;99932.66;;;11.88;65.05
37610;BME280;23457;51.966;8.230;2024-03-25T12:41:41;99930.00;;;12.11;66.66
37610;BME280;23457;51.966;8.230;2024-03-25T12:44:07;99933.41;;;12.25;66.33
37610;BME280;23457;51.966;8.230;2024-03-25T12:47:04;99931.75;;;12.03;64.28
37610;BME280;23457;51.966;8.230;2024-03-25T12:49:32;99907.31;;;12.34;62.36
37610;BME280;23457;51.966;8.230;2024-03-25T12:51:58;99922.56;;;13.06;61.82
37610;BME280;23457;51.966;8.230;2024-03-25T12:54:25;99920.97;;;12.91;58.87
37610;BME280;23457;51.966;8.230;2024-03-25T12:57:00;99916.13;;;13.55;63.41
37610;BME280;23457;51.966;8.230;2024-03-25T12:59:26;99908.50;;;14.21;60.85
37610;BME280;23457;51.966;8.230;2024-03-25T13:01:54;99908.25;;;14.44;58.52
37610;BME280;23457;51.966;8.230;2024-03-25T13:04:20;99903.97;;;14.40;56.10